sensor_id;sensor_type;location;lat;lon;timestamp;temperature;humidity
21163;DHT22;10739;52.198;20.908;2023-07-30T00:02:15;18.10;99.90
21163;DHT22;10739;52.198;20.908;2023-07-30T00:04:42;18.10;99.90
21163;DHT22;10739;52.198;20.908;2023-07-30T00:07:09;18.10;99.90
21163;DHT22;10739;52.198;20.908;2023-07-30T00:09:36;18.10;99.90
21163;DHT22;10739;52.198;20.908;2023-07-30T00:12:03;18.10;99.90
21163;DHT22;10739;52.198;20.908;2023-07-30T00:14:30;18.10;99.90
21163;DHT22;10739;52.198;20.908;2023-07-30T00:16:56;18.10;99.90
21163;DHT22;10739;52.198;20.908;2023-07-30T00:19:23;18.10;99.90
21163;DHT22;10739;52.198;20.908;2023-07-30T00:21:49;18.10;99.90
21163;DHT22;10739;52.198;20.908;2023-07-30T00:24:15;18.00;99.90
21163;DHT22;10739;52.198;20.908;2023-07-30T00:26:42;18.00;99.90
21163;DHT22;10739;52.198;20.908;2023-07-30T00:29:08;18.10;99.90
21163;DHT22;10739;52.198;20.908;2023-07-30T00:31:34;18.00;99.90
21163;DHT22;10739;52.198;20.908;2023-07-30T00:34:01;18.00;99.90
21163;DHT22;10739;52.198;20.908;2023-07-30T00:36:27;18.00;99.90
21163;DHT22;10739;52.198;20.908;2023-07-30T00:38:53;18.00;99.90
21163;DHT22;10739;52.198;20.908;2023-07-30T00:41:20;18.00;99.90
21163;DHT22;10739;52.198;20.908;2023-07-30T00:43:46;18.00;99.90
21163;DHT22;10739;52.198;20.908;2023-07-30T00:46:13;18.00;99.90
21163;DHT22;10739;52.198;20.908;2023-07-30T00:48:39;18.00;99.90
21163;DHT22;10739;52.198;20.908;2023-07-30T00:51:06;17.90;99.90
21163;DHT22;10739;52.198;20.908;2023-07-30T00:53:34;17.90;99.90
21163;DHT22;10739;52.198;20.908;2023-07-30T00:56:03;17.90;99.90
21163;DHT22;10739;52.198;20.908;2023-07-30T00:58:30;17.80;99.90
21163;DHT22;10739;52.198;20.908;2023-07-30T01:00:57;17.80;99.90
21163;DHT22;10739;52.198;20.908;2023-07-30T01:03:23;17.80;99.90
21163;DHT22;10739;52.198;20.908;2023-07-30T01:05:50;17.80;99.90
21163;DHT22;10739;52.198;20.908;2023-07-30T01:08:16;17.80;99.90
21163;DHT22;10739;52.198;20.908;2023-07-30T01:10:43;17.80;99.90
21163;DHT22;10739;52.198;20.908;2023-07-30T01:13:10;17.80;99.90
21163;DHT22;10739;52.198;20.908;2023-07-30T01:15:37;17.80;99.90
21163;DHT22;10739;52.198;20.908;2023-07-30T01:18:03;17.80;99.90
21163;DHT22;10739;52.198;20.908;2023-07-30T01:20:31;17.80;99.90
21163;DHT22;10739;52.198;20.908;2023-07-30T01:23:00;17.80;99.90
21163;DHT22;10739;52.198;20.908;2023-07-30T01:25:33;17.80;99.90
21163;DHT22;10739;52.198;20.908;2023-07-30T01:28:04;17.80;99.90
21163;DHT22;10739;52.198;20.908;2023-07-30T01:30:45;17.70;99.90
21163;DHT22;10739;52.198;20.908;2023-07-30T01:33:12;17.70;99.90
21163;DHT22;10739;52.198;20.908;2023-07-30T01:35:39;17.70;99.90
21163;DHT22;10739;52.198;20.908;2023-07-30T01:38:09;17.70;99.90
21163;DHT22;10739;52.198;20.908;2023-07-30T01:40:36;17.70;99.90
21163;DHT22;10739;52.198;20.908;2023-07-30T01:43:02;17.70;99.90
21163;DHT22;10739;52.198;20.908;2023-07-30T01:45:28;17.70;99.90
21163;DHT22;10739;52.198;20.908;2023-07-30T01:47:55;17.70;99.90
21163;DHT22;10739;52.198;20.908;2023-07-30T01:50:21;17.70;99.90
21163;DHT22;10739;52.198;20.908;2023-07-30T01:52:47;17.70;99.90
21163;DHT22;10739;52.198;20.908;2023-07-30T01:55:13;17.70;99.90
21163;DHT22;10739;52.198;20.908;2023-07-30T01:57:40;17.70;99.90
21163;DHT22;10739;52.198;20.908;2023-07-30T02:00:06;17.70;99.90
21163;DHT22;10739;52.198;20.908;2023-07-30T02:02:33;17.70;99.90
21163;DHT22;10739;52.198;20.908;2023-07-30T02:05:01;17.70;99.90
21163;DHT22;10739;52.198;20.908;2023-07-30T02:07:27;17.60;99.90
21163;DHT22;10739;52.198;20.908;2023-07-30T02:09:53;17.60;99.90
21163;DHT22;10739;52.198;20.908;2023-07-30T02:12:20;17.60;99.90
21163;DHT22;10739;52.198;20.908;2023-07-30T02:14:46;17.60;99.90
21163;DHT22;10739;52.198;20.908;2023-07-30T02:17:12;17.60;99.90
21163;DHT22;10739;52.198;20.908;2023-07-30T02:19:38;17.60;99.90
21163;DHT22;10739;52.198;20.908;2023-07-30T02:22:04;17.60;99.90
21163;DHT22;10739;52.198;20.908;2023-07-30T02:24:31;17.60;99.90
21163;DHT22;10739;52.198;20.908;2023-07-30T02:26:57;17.60;99.90
21163;DHT22;10739;52.198;20.908;2023-07-30T02:29:23;17.60;99.90
21163;DHT22;10739;52.198;20.908;2023-07-30T02:31:49;17.60;99.90
21163;DHT22;10739;52.198;20.908;2023-07-30T02:34:15;17.60;99.90
21163;DHT22;10739;52.198;20.908;2023-07-30T02:36:42;17.60;99.90
21163;DHT22;10739;52.198;20.908;2023-07-30T02:39:08;17.60;99.90
21163;DHT22;10739;52.198;20.908;2023-07-30T02:41:34;17.60;99.90
21163;DHT22;10739;52.198;20.908;2023-07-30T02:44:00;17.70;99.90
21163;DHT22;10739;52.198;20.908;2023-07-30T02:46:26;17.70;99.90
21163;DHT22;10739;52.198;20.908;2023-07-30T02:48:53;17.70;99.90
21163;DHT22;10739;52.198;20.908;2023-07-30T02:51:19;17.70;99.90
21163;DHT22;10739;52.198;20.908;2023-07-30T02:53:45;17.70;99.90
21163;DHT22;10739;52.198;20.908;2023-07-30T02:56:11;17.70;99.90
21163;DHT22;10739;52.198;20.908;2023-07-30T02:58:37;17.70;99.90
21163;DHT22;10739;52.198;20.908;2023-07-30T03:01:07;17.70;99.90
21163;DHT22;10739;52.198;20.908;2023-07-30T03:03:34;17.70;99.90
21163;DHT22;10739;52.198;20.908;2023-07-30T03:06:00;17.60;99.90
21163;DHT22;10739;52.198;20.908;2023-07-30T03:08:26;17.60;99.90
21163;DHT22;10739;52.198;20.908;2023-07-30T03:10:52;17.70;99.90
21163;DHT22;10739;52.198;20.908;2023-07-30T03:13:18;17.70;99.90
21163;DHT22;10739;52.198;20.908;2023-07-30T03:15:44;17.70;99.90
21163;DHT22;10739;52.198;20.908;2023-07-30T03:18:12;17.70;99.90
21163;DHT22;10739;52.198;20.908;2023-07-30T03:20:38;17.70;99.90
21163;DHT22;10739;52.198;20.908;2023-07-30T03:23:04;17.70;99.90
21163;DHT22;10739;52.198;20.908;2023-07-30T03:25:30;17.70;99.90
21163;DHT22;10739;52.198;20.908;2023-07-30T03:27:57;17.70;99.90
21163;DHT22;10739;52.198;20.908;2023-07-30T03:30:23;17.70;99.90
21163;DHT22;10739;52.198;20.908;2023-07-30T03:32:49;17.70;99.90
21163;DHT22;10739;52.198;20.908;2023-07-30T03:35:15;17.70;99.90
21163;DHT22;10739;52.198;20.908;2023-07-30T03:37:41;17.70;99.90
21163;DHT22;10739;52.198;20.908;2023-07-30T03:40:08;17.70;99.90
21163;DHT22;10739;52.198;20.908;2023-07-30T03:42:34;17.70;99.90
21163;DHT22;10739;52.198;20.908;2023-07-30T03:45:01;17.70;99.90
21163;DHT22;10739;52.198;20.908;2023-07-30T03:47:27;17.70;99.90
21163;DHT22;10739;52.198;20.908;2023-07-30T03:49:53;17.70;99.90
21163;DHT22;10739;52.198;20.908;2023-07-30T03:52:19;17.70;99.90
21163;DHT22;10739;52.198;20.908;2023-07-30T03:54:45;17.70;99.90
21163;DHT22;10739;52.198;20.908;2023-07-30T03:57:12;17.70;99.90
21163;DHT22;10739;52.198;20.908;2023-07-30T03:59:38;17.70;99.90
21163;DHT22;10739;52.198;20.908;2023-07-30T04:02:04;17.60;99.90
21163;DHT22;10739;52.198;20.908;2023-07-30T04:04:30;17.60;99.90
21163;DHT22;10739;52.198;20.908;2023-07-30T04:06:57;17.60;99.90
21163;DHT22;10739;52.198;20.908;2023-07-30T04:09:23;17.70;99.90
21163;DHT22;10739;52.198;20.908;2023-07-30T04:11:49;17.70;99.90
21163;DHT22;10739;52.198;20.908;2023-07-30T04:14:15;17.70;99.90
21163;DHT22;10739;52.198;20.908;2023-07-30T04:16:41;17.80;99.90
21163;DHT22;10739;52.198;20.908;2023-07-30T04:19:12;17.70;99.90
21163;DHT22;10739;52.198;20.908;2023-07-30T04:21:39;17.70;99.90
21163;DHT22;10739;52.198;20.908;2023-07-30T04:24:05;17.80;99.90
21163;DHT22;10739;52.198;20.908;2023-07-30T04:26:31;17.80;99.90
21163;DHT22;10739;52.198;20.908;2023-07-30T04:28:58;17.70;99.90
21163;DHT22;10739;52.198;20.908;2023-07-30T04:31:24;17.80;99.90
21163;DHT22;10739;52.198;20.908;2023-07-30T04:33:50;17.80;99.90
21163;DHT22;10739;52.198;20.908;2023-07-30T04:36:16;17.80;99.90
21163;DHT22;10739;52.198;20.908;2023-07-30T04:38:42;17.80;99.90
21163;DHT22;10739;52.198;20.908;2023-07-30T04:41:08;17.80;99.90
21163;DHT22;10739;52.198;20.908;2023-07-30T04:43:34;17.90;99.90
21163;DHT22;10739;52.198;20.908;2023-07-30T04:46:01;17.80;99.90
21163;DHT22;10739;52.198;20.908;2023-07-30T04:48:27;17.90;99.90
21163;DHT22;10739;52.198;20.908;2023-07-30T04:50:53;17.90;99.90
21163;DHT22;10739;52.198;20.908;2023-07-30T04:53:20;17.90;99.90
21163;DHT22;10739;52.198;20.908;2023-07-30T04:55:46;18.00;99.90
21163;DHT22;10739;52.198;20.908;2023-07-30T04:58:12;18.00;99.90
21163;DHT22;10739;52.198;20.908;2023-07-30T05:00:39;18.00;99.90
21163;DHT22;10739;52.198;20.908;2023-07-30T05:03:05;18.00;99.90
21163;DHT22;10739;52.198;20.908;2023-07-30T05:05:31;18.00;99.90
21163;DHT22;10739;52.198;20.908;2023-07-30T05:07:57;18.00;99.90
21163;DHT22;10739;52.198;20.908;2023-07-30T05:10:24;18.00;99.90
21163;DHT22;10739;52.198;20.908;2023-07-30T05:12:50;18.10;99.90
21163;DHT22;10739;52.198;20.908;2023-07-30T05:15:16;18.20;99.90
21163;DHT22;10739;52.198;20.908;2023-07-30T05:17:43;18.20;99.90
21163;DHT22;10739;52.198;20.908;2023-07-30T05:20:09;18.20;99.90
21163;DHT22;10739;52.198;20.908;2023-07-30T05:22:36;18.30;99.90
21163;DHT22;10739;52.198;20.908;2023-07-30T05:25:02;18.30;99.90
21163;DHT22;10739;52.198;20.908;2023-07-30T05:27:29;18.30;99.90
21163;DHT22;10739;52.198;20.908;2023-07-30T05:29:57;18.30;99.90
21163;DHT22;10739;52.198;20.908;2023-07-30T05:32:23;18.30;99.90
21163;DHT22;10739;52.198;20.908;2023-07-30T05:34:49;18.30;99.90
21163;DHT22;10739;52.198;20.908;2023-07-30T05:37:16;18.20;99.90
21163;DHT22;10739;52.198;20.908;2023-07-30T05:39:42;18.20;99.90
21163;DHT22;10739;52.198;20.908;2023-07-30T05:42:08;18.30;99.90
21163;DHT22;10739;52.198;20.908;2023-07-30T05:44:34;18.30;99.90
21163;DHT22;10739;52.198;20.908;2023-07-30T05:47:01;18.30;99.90
21163;DHT22;10739;52.198;20.908;2023-07-30T05:49:27;18.30;99.90
21163;DHT22;10739;52.198;20.908;2023-07-30T05:51:53;18.40;99.90
21163;DHT22;10739;52.198;20.908;2023-07-30T05:54:19;18.50;99.90
21163;DHT22;10739;52.198;20.908;2023-07-30T05:56:46;18.60;99.90
21163;DHT22;10739;52.198;20.908;2023-07-30T05:59:12;18.70;99.90
21163;DHT22;10739;52.198;20.908;2023-07-30T06:01:40;18.80;99.90
21163;DHT22;10739;52.198;20.908;2023-07-30T06:04:06;18.80;99.90
21163;DHT22;10739;52.198;20.908;2023-07-30T06:06:32;18.70;99.90
21163;DHT22;10739;52.198;20.908;2023-07-30T06:08:59;18.80;99.90
21163;DHT22;10739;52.198;20.908;2023-07-30T06:11:25;18.80;99.90
21163;DHT22;10739;52.198;20.908;2023-07-30T06:13:52;18.90;99.90
21163;DHT22;10739;52.198;20.908;2023-07-30T06:16:18;19.00;99.90
21163;DHT22;10739;52.198;20.908;2023-07-30T06:18:46;19.10;99.90
21163;DHT22;10739;52.198;20.908;2023-07-30T06:21:13;19.10;99.90
21163;DHT22;10739;52.198;20.908;2023-07-30T06:23:39;19.10;99.90
21163;DHT22;10739;52.198;20.908;2023-07-30T06:26:05;19.00;99.90
21163;DHT22;10739;52.198;20.908;2023-07-30T06:28:32;19.00;99.90
21163;DHT22;10739;52.198;20.908;2023-07-30T06:31:02;18.90;99.90
21163;DHT22;10739;52.198;20.908;2023-07-30T06:33:28;19.10;99.90
21163;DHT22;10739;52.198;20.908;2023-07-30T06:35:55;19.20;99.90
21163;DHT22;10739;52.198;20.908;2023-07-30T06:38:21;19.20;99.90
21163;DHT22;10739;52.198;20.908;2023-07-30T06:40:48;19.10;99.90
21163;DHT22;10739;52.198;20.908;2023-07-30T06:43:14;18.90;99.90
21163;DHT22;10739;52.198;20.908;2023-07-30T06:45:40;18.90;99.90
21163;DHT22;10739;52.198;20.908;2023-07-30T06:48:07;18.90;99.90
21163;DHT22;10739;52.198;20.908;2023-07-30T06:50:33;19.10;99.90
21163;DHT22;10739;52.198;20.908;2023-07-30T06:52:59;19.20;99.90
21163;DHT22;10739;52.198;20.908;2023-07-30T06:55:25;19.30;99.90
21163;DHT22;10739;52.198;20.908;2023-07-30T06:57:51;19.40;99.90
21163;DHT22;10739;52.198;20.908;2023-07-30T07:00:18;19.60;99.90
21163;DHT22;10739;52.198;20.908;2023-07-30T07:02:48;19.70;99.90
21163;DHT22;10739;52.198;20.908;2023-07-30T07:05:14;19.60;99.90
21163;DHT22;10739;52.198;20.908;2023-07-30T07:07:41;19.70;99.90
21163;DHT22;10739;52.198;20.908;2023-07-30T07:10:07;19.70;99.90
21163;DHT22;10739;52.198;20.908;2023-07-30T07:12:34;19.70;99.90
21163;DHT22;10739;52.198;20.908;2023-07-30T07:15:01;19.70;99.90
21163;DHT22;10739;52.198;20.908;2023-07-30T07:17:28;19.80;99.90
21163;DHT22;10739;52.198;20.908;2023-07-30T07:19:54;19.60;99.90
21163;DHT22;10739;52.198;20.908;2023-07-30T07:22:20;19.70;99.90
21163;DHT22;10739;52.198;20.908;2023-07-30T07:24:46;19.90;99.90
21163;DHT22;10739;52.198;20.908;2023-07-30T07:27:12;19.90;99.90
21163;DHT22;10739;52.198;20.908;2023-07-30T07:29:39;20.10;99.90
21163;DHT22;10739;52.198;20.908;2023-07-30T07:32:05;20.30;99.90
21163;DHT22;10739;52.198;20.908;2023-07-30T07:34:32;20.60;99.90
21163;DHT22;10739;52.198;20.908;2023-07-30T07:36:58;20.60;99.90
21163;DHT22;10739;52.198;20.908;2023-07-30T07:39:24;20.80;99.90
21163;DHT22;10739;52.198;20.908;2023-07-30T07:41:50;20.80;99.90
21163;DHT22;10739;52.198;20.908;2023-07-30T07:44:17;20.80;99.90
21163;DHT22;10739;52.198;20.908;2023-07-30T07:46:43;20.70;99.90
21163;DHT22;10739;52.198;20.908;2023-07-30T07:49:09;20.70;99.90
21163;DHT22;10739;52.198;20.908;2023-07-30T07:51:36;20.60;99.90
21163;DHT22;10739;52.198;20.908;2023-07-30T07:54:02;20.80;99.90
21163;DHT22;10739;52.198;20.908;2023-07-30T07:56:30;20.90;99.90
21163;DHT22;10739;52.198;20.908;2023-07-30T07:58:57;21.00;99.90
21163;DHT22;10739;52.198;20.908;2023-07-30T08:01:23;20.60;99.90
21163;DHT22;10739;52.198;20.908;2023-07-30T08:03:50;20.40;99.90
21163;DHT22;10739;52.198;20.908;2023-07-30T08:06:16;20.50;99.90
21163;DHT22;10739;52.198;20.908;2023-07-30T08:08:43;20.50;99.90
21163;DHT22;10739;52.198;20.908;2023-07-30T08:11:09;20.60;99.90
21163;DHT22;10739;52.198;20.908;2023-07-30T08:13:36;20.90;99.90
21163;DHT22;10739;52.198;20.908;2023-07-30T08:16:02;21.00;99.90
21163;DHT22;10739;52.198;20.908;2023-07-30T08:18:28;21.10;99.90
21163;DHT22;10739;52.198;20.908;2023-07-30T08:20:55;21.10;99.90
21163;DHT22;10739;52.198;20.908;2023-07-30T08:23:21;21.40;99.90
21163;DHT22;10739;52.198;20.908;2023-07-30T08:25:47;21.40;99.90
21163;DHT22;10739;52.198;20.908;2023-07-30T08:28:15;21.40;99.90
21163;DHT22;10739;52.198;20.908;2023-07-30T08:30:41;21.50;99.90
21163;DHT22;10739;52.198;20.908;2023-07-30T08:33:07;21.50;99.90
21163;DHT22;10739;52.198;20.908;2023-07-30T08:35:34;21.60;99.90
21163;DHT22;10739;52.198;20.908;2023-07-30T08:38:00;21.70;99.90
21163;DHT22;10739;52.198;20.908;2023-07-30T08:40:26;21.90;99.90
21163;DHT22;10739;52.198;20.908;2023-07-30T08:42:53;22.00;99.90
21163;DHT22;10739;52.198;20.908;2023-07-30T08:45:20;22.00;99.90
21163;DHT22;10739;52.198;20.908;2023-07-30T08:47:47;22.00;99.90
21163;DHT22;10739;52.198;20.908;2023-07-30T08:50:14;22.10;99.90
21163;DHT22;10739;52.198;20.908;2023-07-30T08:52:40;22.40;99.90
21163;DHT22;10739;52.198;20.908;2023-07-30T08:55:08;22.80;99.90
21163;DHT22;10739;52.198;20.908;2023-07-30T08:57:35;23.00;99.90
21163;DHT22;10739;52.198;20.908;2023-07-30T09:00:06;22.60;99.90
21163;DHT22;10739;52.198;20.908;2023-07-30T09:02:39;22.70;99.90
21163;DHT22;10739;52.198;20.908;2023-07-30T09:05:11;22.70;99.90
21163;DHT22;10739;52.198;20.908;2023-07-30T09:07:38;22.90;99.90
21163;DHT22;10739;52.198;20.908;2023-07-30T09:10:04;22.80;99.90
21163;DHT22;10739;52.198;20.908;2023-07-30T09:12:33;23.20;99.90
21163;DHT22;10739;52.198;20.908;2023-07-30T09:15:02;23.80;99.90
21163;DHT22;10739;52.198;20.908;2023-07-30T09:17:33;24.10;99.90
21163;DHT22;10739;52.198;20.908;2023-07-30T09:20:00;24.30;99.90
21163;DHT22;10739;52.198;20.908;2023-07-30T09:22:31;23.70;99.90
21163;DHT22;10739;52.198;20.908;2023-07-30T09:25:02;23.40;99.90
21163;DHT22;10739;52.198;20.908;2023-07-30T09:27:29;22.90;99.90
21163;DHT22;10739;52.198;20.908;2023-07-30T09:30:00;23.20;99.90
21163;DHT22;10739;52.198;20.908;2023-07-30T09:32:29;23.40;99.90
21163;DHT22;10739;52.198;20.908;2023-07-30T09:37:37;24.20;99.90
21163;DHT22;10739;52.198;20.908;2023-07-30T09:40:09;23.90;99.90
21163;DHT22;10739;52.198;20.908;2023-07-30T09:42:37;23.80;99.90
21163;DHT22;10739;52.198;20.908;2023-07-30T09:45:06;23.40;99.90
21163;DHT22;10739;52.198;20.908;2023-07-30T09:47:33;23.50;99.90
21163;DHT22;10739;52.198;20.908;2023-07-30T09:50:02;23.80;99.90
21163;DHT22;10739;52.198;20.908;2023-07-30T09:52:29;23.80;99.90
21163;DHT22;10739;52.198;20.908;2023-07-30T09:54:58;24.20;99.90
21163;DHT22;10739;52.198;20.908;2023-07-30T09:57:24;24.80;99.90
21163;DHT22;10739;52.198;20.908;2023-07-30T09:59:51;25.30;99.90
21163;DHT22;10739;52.198;20.908;2023-07-30T10:02:19;25.60;99.90
21163;DHT22;10739;52.198;20.908;2023-07-30T10:04:48;26.40;99.90
21163;DHT22;10739;52.198;20.908;2023-07-30T10:07:21;26.50;99.90
21163;DHT22;10739;52.198;20.908;2023-07-30T10:09:52;27.20;99.90
21163;DHT22;10739;52.198;20.908;2023-07-30T10:12:31;26.70;99.90
21163;DHT22;10739;52.198;20.908;2023-07-30T10:14:58;26.60;99.90
21163;DHT22;10739;52.198;20.908;2023-07-30T10:17:26;26.30;99.90
21163;DHT22;10739;52.198;20.908;2023-07-30T10:19:54;25.90;99.90
21163;DHT22;10739;52.198;20.908;2023-07-30T10:22:23;26.10;99.90
21163;DHT22;10739;52.198;20.908;2023-07-30T10:24:58;26.30;99.90
21163;DHT22;10739;52.198;20.908;2023-07-30T10:27:35;26.70;99.90
21163;DHT22;10739;52.198;20.908;2023-07-30T10:30:13;26.90;99.90
21163;DHT22;10739;52.198;20.908;2023-07-30T10:35:45;26.30;99.90
21163;DHT22;10739;52.198;20.908;2023-07-30T10:41:07;25.30;99.90
21163;DHT22;10739;52.198;20.908;2023-07-30T10:43:47;25.60;99.90
21163;DHT22;10739;52.198;20.908;2023-07-30T10:46:19;26.50;99.90
21163;DHT22;10739;52.198;20.908;2023-07-30T10:48:47;27.40;99.90
21163;DHT22;10739;52.198;20.908;2023-07-30T10:51:16;27.70;99.90
21163;DHT22;10739;52.198;20.908;2023-07-30T10:53:50;27.80;99.30
21163;DHT22;10739;52.198;20.908;2023-07-30T10:56:21;28.20;98.20
21163;DHT22;10739;52.198;20.908;2023-07-30T10:58:53;28.50;97.40
21163;DHT22;10739;52.198;20.908;2023-07-30T11:01:20;28.70;97.70
21163;DHT22;10739;52.198;20.908;2023-07-30T11:03:50;29.10;96.10
21163;DHT22;10739;52.198;20.908;2023-07-30T11:06:26;29.70;95.30
21163;DHT22;10739;52.198;20.908;2023-07-30T11:08:53;29.30;95.20
21163;DHT22;10739;52.198;20.908;2023-07-30T11:11:19;28.90;94.00
21163;DHT22;10739;52.198;20.908;2023-07-30T11:13:46;28.30;94.70
21163;DHT22;10739;52.198;20.908;2023-07-30T11:16:14;28.10;95.10
21163;DHT22;10739;52.198;20.908;2023-07-30T11:18:42;28.30;95.30
21163;DHT22;10739;52.198;20.908;2023-07-30T11:21:10;29.10;95.90
21163;DHT22;10739;52.198;20.908;2023-07-30T11:23:40;29.20;93.70
21163;DHT22;10739;52.198;20.908;2023-07-30T11:26:09;29.10;94.40
21163;DHT22;10739;52.198;20.908;2023-07-30T11:28:40;30.10;94.40
21163;DHT22;10739;52.198;20.908;2023-07-30T11:31:08;30.40;92.40
21163;DHT22;10739;52.198;20.908;2023-07-30T11:33:41;30.30;91.70
21163;DHT22;10739;52.198;20.908;2023-07-30T11:36:18;29.30;92.70
21163;DHT22;10739;52.198;20.908;2023-07-30T11:38:48;29.30;92.60
21163;DHT22;10739;52.198;20.908;2023-07-30T11:41:15;29.40;92.40
21163;DHT22;10739;52.198;20.908;2023-07-30T11:43:43;29.60;92.70
21163;DHT22;10739;52.198;20.908;2023-07-30T11:46:16;28.90;93.10
21163;DHT22;10739;52.198;20.908;2023-07-30T11:48:49;28.60;93.60
21163;DHT22;10739;52.198;20.908;2023-07-30T11:51:25;28.20;94.20
21163;DHT22;10739;52.198;20.908;2023-07-30T11:53:58;27.80;94.90
21163;DHT22;10739;52.198;20.908;2023-07-30T11:56:30;27.20;95.20
21163;DHT22;10739;52.198;20.908;2023-07-30T11:59:00;27.20;95.80
21163;DHT22;10739;52.198;20.908;2023-07-30T12:01:31;27.10;96.30
21163;DHT22;10739;52.198;20.908;2023-07-30T12:04:04;26.90;97.00
21163;DHT22;10739;52.198;20.908;2023-07-30T12:06:51;26.50;97.10
21163;DHT22;10739;52.198;20.908;2023-07-30T12:09:24;26.10;97.50
21163;DHT22;10739;52.198;20.908;2023-07-30T12:11:55;25.70;98.40
21163;DHT22;10739;52.198;20.908;2023-07-30T12:14:26;25.50;99.40
21163;DHT22;10739;52.198;20.908;2023-07-30T12:16:59;25.20;99.90
21163;DHT22;10739;52.198;20.908;2023-07-30T12:19:26;25.30;99.90
21163;DHT22;10739;52.198;20.908;2023-07-30T12:21:52;26.10;99.90
21163;DHT22;10739;52.198;20.908;2023-07-30T12:24:18;26.90;98.60
21163;DHT22;10739;52.198;20.908;2023-07-30T12:26:45;27.70;98.10
21163;DHT22;10739;52.198;20.908;2023-07-30T12:29:11;28.50;95.60
21163;DHT22;10739;52.198;20.908;2023-07-30T12:31:37;29.00;95.00
21163;DHT22;10739;52.198;20.908;2023-07-30T12:34:04;29.10;94.30
21163;DHT22;10739;52.198;20.908;2023-07-30T12:36:30;29.20;95.20
21163;DHT22;10739;52.198;20.908;2023-07-30T12:38:56;29.60;94.40
21163;DHT22;10739;52.198;20.908;2023-07-30T12:41:22;30.00;93.00
21163;DHT22;10739;52.198;20.908;2023-07-30T12:43:53;30.00;92.40
21163;DHT22;10739;52.198;20.908;2023-07-30T12:46:20;30.20;93.40
21163;DHT22;10739;52.198;20.908;2023-07-30T12:48:46;30.30;92.70
21163;DHT22;10739;52.198;20.908;2023-07-30T12:51:12;30.10;92.70
21163;DHT22;10739;52.198;20.908;2023-07-30T12:53:39;30.20;92.10
21163;DHT22;10739;52.198;20.908;2023-07-30T12:56:05;30.20;92.00
21163;DHT22;10739;52.198;20.908;2023-07-30T12:58:31;30.30;91.90
21163;DHT22;10739;52.198;20.908;2023-07-30T13:00:57;29.80;92.40
21163;DHT22;10739;52.198;20.908;2023-07-30T13:03:24;29.50;92.40
21163;DHT22;10739;52.198;20.908;2023-07-30T13:05:50;29.40;93.40
21163;DHT22;10739;52.198;20.908;2023-07-30T13:08:16;29.20;92.80
21163;DHT22;10739;52.198;20.908;2023-07-30T13:10:42;29.20;93.20
21163;DHT22;10739;52.198;20.908;2023-07-30T13:13:08;29.20;92.60
21163;DHT22;10739;52.198;20.908;2023-07-30T13:15:35;29.50;92.20
21163;DHT22;10739;52.198;20.908;2023-07-30T13:18:01;29.40;92.30
21163;DHT22;10739;52.198;20.908;2023-07-30T13:20:29;29.80;92.50
21163;DHT22;10739;52.198;20.908;2023-07-30T13:22:57;29.40;93.40
21163;DHT22;10739;52.198;20.908;2023-07-30T13:25:23;29.40;91.90
21163;DHT22;10739;52.198;20.908;2023-07-30T13:27:50;29.30;92.00
21163;DHT22;10739;52.198;20.908;2023-07-30T13:30:16;29.30;92.90
21163;DHT22;10739;52.198;20.908;2023-07-30T13:32:43;28.90;92.10
21163;DHT22;10739;52.198;20.908;2023-07-30T13:35:09;28.90;93.10
21163;DHT22;10739;52.198;20.908;2023-07-30T13:37:35;28.90;93.00
21163;DHT22;10739;52.198;20.908;2023-07-30T13:40:01;28.30;93.10
21163;DHT22;10739;52.198;20.908;2023-07-30T13:42:27;27.90;93.20
21163;DHT22;10739;52.198;20.908;2023-07-30T13:44:53;27.70;93.70
21163;DHT22;10739;52.198;20.908;2023-07-30T13:47:20;27.40;93.90
21163;DHT22;10739;52.198;20.908;2023-07-30T13:49:46;27.30;94.60
21163;DHT22;10739;52.198;20.908;2023-07-30T13:52:13;27.20;94.00
21163;DHT22;10739;52.198;20.908;2023-07-30T13:54:39;27.10;93.60
21163;DHT22;10739;52.198;20.908;2023-07-30T13:57:07;26.60;94.20
21163;DHT22;10739;52.198;20.908;2023-07-30T13:59:33;26.20;94.90
21163;DHT22;10739;52.198;20.908;2023-07-30T14:01:59;26.00;95.30
21163;DHT22;10739;52.198;20.908;2023-07-30T14:04:26;25.80;96.00
21163;DHT22;10739;52.198;20.908;2023-07-30T14:06:52;25.90;96.20
21163;DHT22;10739;52.198;20.908;2023-07-30T14:09:18;25.90;96.40
21163;DHT22;10739;52.198;20.908;2023-07-30T14:11:45;26.00;96.20
21163;DHT22;10739;52.198;20.908;2023-07-30T14:14:12;26.40;96.10
21163;DHT22;10739;52.198;20.908;2023-07-30T14:16:38;27.00;96.20
21163;DHT22;10739;52.198;20.908;2023-07-30T14:19:04;27.60;93.60
21163;DHT22;10739;52.198;20.908;2023-07-30T14:21:31;28.00;92.70
21163;DHT22;10739;52.198;20.908;2023-07-30T14:23:57;28.30;93.00
21163;DHT22;10739;52.198;20.908;2023-07-30T14:26:23;28.20;92.50
21163;DHT22;10739;52.198;20.908;2023-07-30T14:28:49;28.40;92.80
21163;DHT22;10739;52.198;20.908;2023-07-30T14:31:15;28.80;92.20
21163;DHT22;10739;52.198;20.908;2023-07-30T14:33:41;28.70;92.70
21163;DHT22;10739;52.198;20.908;2023-07-30T14:36:08;28.70;92.50
21163;DHT22;10739;52.198;20.908;2023-07-30T14:38:36;29.10;92.40
21163;DHT22;10739;52.198;20.908;2023-07-30T14:41:03;28.60;91.90
21163;DHT22;10739;52.198;20.908;2023-07-30T14:43:31;28.40;92.10
21163;DHT22;10739;52.198;20.908;2023-07-30T14:45:57;28.20;92.30
21163;DHT22;10739;52.198;20.908;2023-07-30T14:48:24;27.80;92.50
21163;DHT22;10739;52.198;20.908;2023-07-30T14:50:50;27.10;92.80
21163;DHT22;10739;52.198;20.908;2023-07-30T14:53:16;27.00;93.80
21163;DHT22;10739;52.198;20.908;2023-07-30T14:55:42;26.50;94.10
21163;DHT22;10739;52.198;20.908;2023-07-30T14:58:09;26.40;95.10
21163;DHT22;10739;52.198;20.908;2023-07-30T15:00:35;26.20;94.90
21163;DHT22;10739;52.198;20.908;2023-07-30T15:03:03;26.20;95.10
21163;DHT22;10739;52.198;20.908;2023-07-30T15:05:31;26.30;95.20
21163;DHT22;10739;52.198;20.908;2023-07-30T15:07:58;26.20;95.30
21163;DHT22;10739;52.198;20.908;2023-07-30T15:10:24;26.10;95.00
21163;DHT22;10739;52.198;20.908;2023-07-30T15:12:51;25.90;95.40
21163;DHT22;10739;52.198;20.908;2023-07-30T15:15:17;25.80;96.50
21163;DHT22;10739;52.198;20.908;2023-07-30T15:17:43;25.60;96.10
21163;DHT22;10739;52.198;20.908;2023-07-30T15:20:10;25.40;96.00
21163;DHT22;10739;52.198;20.908;2023-07-30T15:22:37;25.30;96.40
21163;DHT22;10739;52.198;20.908;2023-07-30T15:25:04;25.10;95.90